sensor_id;sensor_type;location;lat;lon;timestamp;temperature;humidity
9399;DHT22;4739;49.334;8.792;2022-07-30T00:01:09;19.30;99.90
9399;DHT22;4739;49.334;8.792;2022-07-30T00:03:35;19.20;99.90
9399;DHT22;4739;49.334;8.792;2022-07-30T00:06:01;19.20;99.90
9399;DHT22;4739;49.334;8.792;2022-07-30T00:08:26;19.30;99.90
9399;DHT22;4739;49.334;8.792;2022-07-30T00:10:52;19.30;99.90
9399;DHT22;4739;49.334;8.792;2022-07-30T00:13:18;19.20;99.90
9399;DHT22;4739;49.334;8.792;2022-07-30T00:15:43;19.20;99.90
9399;DHT22;4739;49.334;8.792;2022-07-30T00:18:09;19.20;99.90
9399;DHT22;4739;49.334;8.792;2022-07-30T00:20:34;19.10;99.90
9399;DHT22;4739;49.334;8.792;2022-07-30T00:23:03;19.00;99.90
9399;DHT22;4739;49.334;8.792;2022-07-30T00:25:29;19.00;99.90
9399;DHT22;4739;49.334;8.792;2022-07-30T00:27:55;18.90;99.90
9399;DHT22;4739;49.334;8.792;2022-07-30T00:30:21;18.90;99.90
9399;DHT22;4739;49.334;8.792;2022-07-30T00:32:46;18.90;99.90
9399;DHT22;4739;49.334;8.792;2022-07-30T00:35:12;18.90;99.90
9399;DHT22;4739;49.334;8.792;2022-07-30T00:42:41;18.80;99.90
9399;DHT22;4739;49.334;8.792;2022-07-30T00:45:09;18.80;99.90
9399;DHT22;4739;49.334;8.792;2022-07-30T00:47:35;19.10;99.90
9399;DHT22;4739;49.334;8.792;2022-07-30T00:50:01;19.30;99.90
9399;DHT22;4739;49.334;8.792;2022-07-30T00:52:30;18.60;99.90
9399;DHT22;4739;49.334;8.792;2022-07-30T00:54:57;18.60;99.90
9399;DHT22;4739;49.334;8.792;2022-07-30T00:57:22;18.60;99.90
9399;DHT22;4739;49.334;8.792;2022-07-30T00:59:48;18.50;99.90
9399;DHT22;4739;49.334;8.792;2022-07-30T01:02:14;18.50;99.90
9399;DHT22;4739;49.334;8.792;2022-07-30T01:04:39;18.30;99.90
9399;DHT22;4739;49.334;8.792;2022-07-30T01:07:05;18.30;99.90
9399;DHT22;4739;49.334;8.792;2022-07-30T01:09:30;18.30;99.90
9399;DHT22;4739;49.334;8.792;2022-07-30T01:11:57;18.30;99.90
9399;DHT22;4739;49.334;8.792;2022-07-30T01:14:23;18.30;99.90
9399;DHT22;4739;49.334;8.792;2022-07-30T01:16:48;18.20;99.90
9399;DHT22;4739;49.334;8.792;2022-07-30T01:19:20;18.20;99.90
9399;DHT22;4739;49.334;8.792;2022-07-30T01:22:15;18.20;99.90
9399;DHT22;4739;49.334;8.792;2022-07-30T01:24:46;18.20;99.90
9399;DHT22;4739;49.334;8.792;2022-07-30T01:27:15;18.10;99.90
9399;DHT22;4739;49.334;8.792;2022-07-30T01:29:42;18.20;99.90
9399;DHT22;4739;49.334;8.792;2022-07-30T01:32:10;18.00;99.90
9399;DHT22;4739;49.334;8.792;2022-07-30T01:34:36;18.00;99.90
9399;DHT22;4739;49.334;8.792;2022-07-30T01:37:04;17.90;99.90
9399;DHT22;4739;49.334;8.792;2022-07-30T01:39:31;17.90;99.90
9399;DHT22;4739;49.334;8.792;2022-07-30T01:41:57;17.80;99.90
9399;DHT22;4739;49.334;8.792;2022-07-30T01:44:25;17.90;99.90
9399;DHT22;4739;49.334;8.792;2022-07-30T01:46:52;17.80;99.90
9399;DHT22;4739;49.334;8.792;2022-07-30T01:49:20;17.70;99.90
9399;DHT22;4739;49.334;8.792;2022-07-30T01:51:47;17.70;99.90
9399;DHT22;4739;49.334;8.792;2022-07-30T01:54:17;17.70;99.90
9399;DHT22;4739;49.334;8.792;2022-07-30T01:56:44;17.70;99.90
9399;DHT22;4739;49.334;8.792;2022-07-30T02:01:39;17.70;99.90
9399;DHT22;4739;49.334;8.792;2022-07-30T02:04:04;17.70;99.90
9399;DHT22;4739;49.334;8.792;2022-07-30T02:06:37;17.80;99.90
9399;DHT22;4739;49.334;8.792;2022-07-30T02:09:05;17.70;99.90
9399;DHT22;4739;49.334;8.792;2022-07-30T02:11:36;17.70;99.90
9399;DHT22;4739;49.334;8.792;2022-07-30T02:14:28;17.70;99.90
9399;DHT22;4739;49.334;8.792;2022-07-30T02:16:56;17.60;99.90
9399;DHT22;4739;49.334;8.792;2022-07-30T02:19:28;17.50;99.90
9399;DHT22;4739;49.334;8.792;2022-07-30T02:22:02;17.50;99.90
9399;DHT22;4739;49.334;8.792;2022-07-30T02:24:31;17.50;99.90
9399;DHT22;4739;49.334;8.792;2022-07-30T02:27:03;17.40;99.90
9399;DHT22;4739;49.334;8.792;2022-07-30T02:29:33;17.30;99.90
9399;DHT22;4739;49.334;8.792;2022-07-30T02:32:03;17.10;99.90
9399;DHT22;4739;49.334;8.792;2022-07-30T02:34:32;17.00;99.90
9399;DHT22;4739;49.334;8.792;2022-07-30T02:37:01;17.00;99.90
9399;DHT22;4739;49.334;8.792;2022-07-30T02:39:27;16.90;99.90
9399;DHT22;4739;49.334;8.792;2022-07-30T02:41:55;16.90;99.90
9399;DHT22;4739;49.334;8.792;2022-07-30T02:44:22;16.80;99.90
9399;DHT22;4739;49.334;8.792;2022-07-30T02:46:50;16.80;99.90
9399;DHT22;4739;49.334;8.792;2022-07-30T02:49:16;16.80;99.90
9399;DHT22;4739;49.334;8.792;2022-07-30T02:51:46;16.80;99.90
9399;DHT22;4739;49.334;8.792;2022-07-30T02:54:13;16.80;99.90
9399;DHT22;4739;49.334;8.792;2022-07-30T02:56:41;16.80;99.90
9399;DHT22;4739;49.334;8.792;2022-07-30T02:59:09;16.80;99.90
9399;DHT22;4739;49.334;8.792;2022-07-30T03:01:36;16.80;99.90
9399;DHT22;4739;49.334;8.792;2022-07-30T03:04:02;16.80;99.90
9399;DHT22;4739;49.334;8.792;2022-07-30T03:06:30;16.80;99.90
9399;DHT22;4739;49.334;8.792;2022-07-30T03:08:56;16.80;99.90
9399;DHT22;4739;49.334;8.792;2022-07-30T03:11:25;16.70;99.90
9399;DHT22;4739;49.334;8.792;2022-07-30T03:13:52;16.60;99.90
9399;DHT22;4739;49.334;8.792;2022-07-30T03:16:21;16.60;99.90
9399;DHT22;4739;49.334;8.792;2022-07-30T03:18:48;16.60;99.90
9399;DHT22;4739;49.334;8.792;2022-07-30T03:21:15;16.60;99.90
9399;DHT22;4739;49.334;8.792;2022-07-30T03:23:43;16.60;99.90
9399;DHT22;4739;49.334;8.792;2022-07-30T03:26:11;16.50;99.90
9399;DHT22;4739;49.334;8.792;2022-07-30T03:28:39;16.40;99.90
9399;DHT22;4739;49.334;8.792;2022-07-30T03:31:06;16.40;99.90
9399;DHT22;4739;49.334;8.792;2022-07-30T03:33:35;16.50;99.90
9399;DHT22;4739;49.334;8.792;2022-07-30T03:36:01;16.40;99.90
9399;DHT22;4739;49.334;8.792;2022-07-30T03:38:28;16.40;99.90
9399;DHT22;4739;49.334;8.792;2022-07-30T03:40:54;16.50;99.90
9399;DHT22;4739;49.334;8.792;2022-07-30T03:43:21;16.50;99.90
9399;DHT22;4739;49.334;8.792;2022-07-30T03:45:48;16.40;99.90
9399;DHT22;4739;49.334;8.792;2022-07-30T03:48:14;16.30;99.90
9399;DHT22;4739;49.334;8.792;2022-07-30T03:50:41;16.20;99.90
9399;DHT22;4739;49.334;8.792;2022-07-30T03:53:08;16.20;99.90
9399;DHT22;4739;49.334;8.792;2022-07-30T03:55:34;16.20;99.90
9399;DHT22;4739;49.334;8.792;2022-07-30T03:58:01;16.10;99.90
9399;DHT22;4739;49.334;8.792;2022-07-30T04:00:28;16.10;99.90
9399;DHT22;4739;49.334;8.792;2022-07-30T04:02:54;16.00;99.90
9399;DHT22;4739;49.334;8.792;2022-07-30T04:05:21;16.10;99.90
9399;DHT22;4739;49.334;8.792;2022-07-30T04:07:46;16.10;99.90
9399;DHT22;4739;49.334;8.792;2022-07-30T04:10:13;16.10;99.90
9399;DHT22;4739;49.334;8.792;2022-07-30T04:12:39;16.10;99.90
9399;DHT22;4739;49.334;8.792;2022-07-30T04:15:05;16.10;99.90
9399;DHT22;4739;49.334;8.792;2022-07-30T04:17:35;16.10;99.90
9399;DHT22;4739;49.334;8.792;2022-07-30T04:20:09;16.10;99.90
9399;DHT22;4739;49.334;8.792;2022-07-30T04:22:37;16.10;99.90
9399;DHT22;4739;49.334;8.792;2022-07-30T04:25:04;16.20;99.90
9399;DHT22;4739;49.334;8.792;2022-07-30T04:27:33;16.20;99.90
9399;DHT22;4739;49.334;8.792;2022-07-30T04:29:59;16.20;99.90
9399;DHT22;4739;49.334;8.792;2022-07-30T04:32:25;16.20;99.90
9399;DHT22;4739;49.334;8.792;2022-07-30T04:34:53;16.30;99.90
9399;DHT22;4739;49.334;8.792;2022-07-30T04:37:23;16.30;99.90
9399;DHT22;4739;49.334;8.792;2022-07-30T04:39:49;16.30;99.90
9399;DHT22;4739;49.334;8.792;2022-07-30T04:42:19;16.30;99.90
9399;DHT22;4739;49.334;8.792;2022-07-30T04:44:45;16.40;99.90
9399;DHT22;4739;49.334;8.792;2022-07-30T04:47:11;16.40;99.90
9399;DHT22;4739;49.334;8.792;2022-07-30T04:49:37;16.40;99.90
9399;DHT22;4739;49.334;8.792;2022-07-30T04:52:04;16.50;99.90
9399;DHT22;4739;49.334;8.792;2022-07-30T04:54:41;16.50;99.90
9399;DHT22;4739;49.334;8.792;2022-07-30T04:57:09;16.60;99.90
9399;DHT22;4739;49.334;8.792;2022-07-30T04:59:35;16.50;99.90
9399;DHT22;4739;49.334;8.792;2022-07-30T05:02:02;16.60;99.90
9399;DHT22;4739;49.334;8.792;2022-07-30T05:04:28;16.70;99.90
9399;DHT22;4739;49.334;8.792;2022-07-30T05:06:56;16.70;99.90
9399;DHT22;4739;49.334;8.792;2022-07-30T05:09:22;16.70;99.90
9399;DHT22;4739;49.334;8.792;2022-07-30T05:11:50;16.80;99.90
9399;DHT22;4739;49.334;8.792;2022-07-30T05:14:15;16.80;99.90
9399;DHT22;4739;49.334;8.792;2022-07-30T05:16:41;16.90;99.90
9399;DHT22;4739;49.334;8.792;2022-07-30T05:19:06;17.00;99.90
9399;DHT22;4739;49.334;8.792;2022-07-30T05:21:32;17.00;99.90
9399;DHT22;4739;49.334;8.792;2022-07-30T05:23:57;17.10;99.90
9399;DHT22;4739;49.334;8.792;2022-07-30T05:26:23;17.10;99.90
9399;DHT22;4739;49.334;8.792;2022-07-30T05:28:49;17.10;99.90
9399;DHT22;4739;49.334;8.792;2022-07-30T05:31:14;17.20;99.90
9399;DHT22;4739;49.334;8.792;2022-07-30T05:33:40;17.20;99.90
9399;DHT22;4739;49.334;8.792;2022-07-30T05:36:05;17.30;99.90
9399;DHT22;4739;49.334;8.792;2022-07-30T05:38:33;17.30;99.90
9399;DHT22;4739;49.334;8.792;2022-07-30T05:40:59;17.40;99.90
9399;DHT22;4739;49.334;8.792;2022-07-30T05:43:24;17.40;99.90
9399;DHT22;4739;49.334;8.792;2022-07-30T05:45:50;17.40;99.90
9399;DHT22;4739;49.334;8.792;2022-07-30T05:48:15;17.40;99.90
9399;DHT22;4739;49.334;8.792;2022-07-30T05:50:41;17.50;99.90
9399;DHT22;4739;49.334;8.792;2022-07-30T05:53:07;17.60;99.90
9399;DHT22;4739;49.334;8.792;2022-07-30T05:55:32;17.60;99.90
9399;DHT22;4739;49.334;8.792;2022-07-30T05:57:58;17.50;99.90
9399;DHT22;4739;49.334;8.792;2022-07-30T06:00:23;17.50;99.90
9399;DHT22;4739;49.334;8.792;2022-07-30T06:02:49;17.60;99.90
9399;DHT22;4739;49.334;8.792;2022-07-30T06:05:15;17.70;99.90
9399;DHT22;4739;49.334;8.792;2022-07-30T06:07:40;17.80;99.90
9399;DHT22;4739;49.334;8.792;2022-07-30T06:10:06;17.90;99.90
9399;DHT22;4739;49.334;8.792;2022-07-30T06:12:32;17.90;99.90
9399;DHT22;4739;49.334;8.792;2022-07-30T06:14:57;18.10;99.90
9399;DHT22;4739;49.334;8.792;2022-07-30T06:17:23;18.20;99.90
9399;DHT22;4739;49.334;8.792;2022-07-30T06:19:49;18.30;99.90
9399;DHT22;4739;49.334;8.792;2022-07-30T06:22:16;18.30;99.90
9399;DHT22;4739;49.334;8.792;2022-07-30T06:24:41;18.40;99.90
9399;DHT22;4739;49.334;8.792;2022-07-30T06:27:07;18.50;99.90
9399;DHT22;4739;49.334;8.792;2022-07-30T06:29:33;18.50;99.90
9399;DHT22;4739;49.334;8.792;2022-07-30T06:31:59;18.60;99.90
9399;DHT22;4739;49.334;8.792;2022-07-30T06:34:24;18.60;99.90
9399;DHT22;4739;49.334;8.792;2022-07-30T06:36:50;18.70;99.90
9399;DHT22;4739;49.334;8.792;2022-07-30T06:39:16;18.90;99.90
9399;DHT22;4739;49.334;8.792;2022-07-30T06:41:41;18.90;99.90
9399;DHT22;4739;49.334;8.792;2022-07-30T06:44:07;19.10;99.90
9399;DHT22;4739;49.334;8.792;2022-07-30T06:46:32;19.10;99.90
9399;DHT22;4739;49.334;8.792;2022-07-30T06:48:58;19.20;99.90
9399;DHT22;4739;49.334;8.792;2022-07-30T06:51:24;19.40;99.90
9399;DHT22;4739;49.334;8.792;2022-07-30T06:53:49;19.30;99.90
9399;DHT22;4739;49.334;8.792;2022-07-30T06:56:15;19.50;99.90
9399;DHT22;4739;49.334;8.792;2022-07-30T06:58:41;19.50;99.90
9399;DHT22;4739;49.334;8.792;2022-07-30T07:01:06;19.70;99.90
9399;DHT22;4739;49.334;8.792;2022-07-30T07:03:32;19.80;99.90
9399;DHT22;4739;49.334;8.792;2022-07-30T07:05:57;19.80;99.90
9399;DHT22;4739;49.334;8.792;2022-07-30T07:08:23;19.90;99.90
9399;DHT22;4739;49.334;8.792;2022-07-30T07:10:49;20.10;99.90
9399;DHT22;4739;49.334;8.792;2022-07-30T07:13:14;20.30;99.90
9399;DHT22;4739;49.334;8.792;2022-07-30T07:15:40;20.50;99.90
9399;DHT22;4739;49.334;8.792;2022-07-30T07:18:06;20.60;99.90
9399;DHT22;4739;49.334;8.792;2022-07-30T07:20:33;20.80;99.90
9399;DHT22;4739;49.334;8.792;2022-07-30T07:23:00;21.00;99.90
9399;DHT22;4739;49.334;8.792;2022-07-30T07:25:26;21.20;99.90
9399;DHT22;4739;49.334;8.792;2022-07-30T07:30:17;21.40;99.90
9399;DHT22;4739;49.334;8.792;2022-07-30T07:32:43;21.40;99.90
9399;DHT22;4739;49.334;8.792;2022-07-30T07:35:09;21.50;99.90
9399;DHT22;4739;49.334;8.792;2022-07-30T07:37:34;21.60;99.90
9399;DHT22;4739;49.334;8.792;2022-07-30T07:40:00;21.70;99.90
9399;DHT22;4739;49.334;8.792;2022-07-30T07:42:26;21.80;99.90
9399;DHT22;4739;49.334;8.792;2022-07-30T07:44:51;21.80;99.90
9399;DHT22;4739;49.334;8.792;2022-07-30T07:47:17;21.90;99.90
9399;DHT22;4739;49.334;8.792;2022-07-30T07:49:42;22.00;99.90
9399;DHT22;4739;49.334;8.792;2022-07-30T07:52:08;22.20;99.90
9399;DHT22;4739;49.334;8.792;2022-07-30T07:54:34;22.30;99.90
9399;DHT22;4739;49.334;8.792;2022-07-30T07:56:59;22.30;99.90
9399;DHT22;4739;49.334;8.792;2022-07-30T07:59:26;22.30;99.90
9399;DHT22;4739;49.334;8.792;2022-07-30T08:01:51;22.50;99.90
9399;DHT22;4739;49.334;8.792;2022-07-30T08:04:17;22.50;99.90
9399;DHT22;4739;49.334;8.792;2022-07-30T08:06:42;22.60;99.90
9399;DHT22;4739;49.334;8.792;2022-07-30T08:23:44;23.20;99.90
9399;DHT22;4739;49.334;8.792;2022-07-30T08:26:10;23.30;99.90
9399;DHT22;4739;49.334;8.792;2022-07-30T08:28:35;23.30;99.90
9399;DHT22;4739;49.334;8.792;2022-07-30T08:31:01;23.20;99.90
9399;DHT22;4739;49.334;8.792;2022-07-30T08:33:27;23.30;99.90
9399;DHT22;4739;49.334;8.792;2022-07-30T08:50:33;24.00;99.90
9399;DHT22;4739;49.334;8.792;2022-07-30T08:53:00;24.00;99.90
9399;DHT22;4739;49.334;8.792;2022-07-30T08:55:26;24.10;99.90
9399;DHT22;4739;49.334;8.792;2022-07-30T08:57:52;24.30;99.90
9399;DHT22;4739;49.334;8.792;2022-07-30T09:00:18;24.30;99.90
